createdAt,value
2018-07-15T00:01:13.659Z,10.57
2018-07-15T00:03:42.275Z,11.53
2018-07-15T00:06:10.823Z,11.33
2018-07-15T00:08:39.337Z,10.90
2018-07-15T00:11:07.855Z,11.00
2018-07-15T00:13:36.398Z,10.83
2018-07-15T00:16:04.997Z,10.13
2018-07-15T00:18:33.516Z,10.30
2018-07-15T00:21:02.071Z,10.23
2018-07-15T00:23:30.640Z,9.43
2018-07-15T00:25:59.153Z,9.90
2018-07-15T00:28:27.733Z,9.87
2018-07-15T00:30:56.367Z,11.00
2018-07-15T00:33:24.976Z,10.90
2018-07-15T00:35:53.619Z,10.20
2018-07-15T00:38:22.143Z,11.33
2018-07-15T00:40:50.708Z,11.87
2018-07-15T00:43:19.203Z,10.90
2018-07-15T00:45:47.783Z,11.10
2018-07-15T00:48:16.355Z,11.23
2018-07-15T00:50:44.980Z,11.17
2018-07-15T00:53:13.536Z,12.13
2018-07-15T00:55:42.074Z,11.20
2018-07-15T00:58:10.630Z,11.03
2018-07-15T01:00:44.348Z,12.00
2018-07-15T01:03:12.885Z,11.80
2018-07-15T01:05:41.364Z,10.80
2018-07-15T01:08:09.951Z,11.87
2018-07-15T01:10:38.520Z,11.80
2018-07-15T01:13:07.158Z,11.60
2018-07-15T01:15:35.754Z,15.73
2018-07-15T01:18:06.286Z,12.70
2018-07-15T01:20:34.850Z,12.23
2018-07-15T01:23:03.374Z,13.23
2018-07-15T01:25:31.973Z,11.90
2018-07-15T01:28:00.647Z,12.20
2018-07-15T01:30:29.283Z,12.40
2018-07-15T01:32:57.954Z,11.70
2018-07-15T01:35:26.552Z,13.03
2018-07-15T01:37:55.145Z,12.33
2018-07-15T01:40:23.664Z,12.03
2018-07-15T01:42:52.309Z,11.80
2018-07-15T01:45:20.909Z,12.73
2018-07-15T01:47:50.561Z,12.13
2018-07-15T01:50:19.236Z,17.77
2018-07-15T01:52:47.693Z,11.87
2018-07-15T01:55:16.323Z,11.63
2018-07-15T01:57:44.849Z,13.73
2018-07-15T02:00:13.398Z,10.80
2018-07-15T02:02:41.916Z,12.57
2018-07-15T02:05:10.439Z,12.00
2018-07-15T02:07:39.199Z,11.90
2018-07-15T02:10:07.856Z,14.40
2018-07-15T02:12:36.324Z,11.80
2018-07-15T02:15:05.016Z,12.20
2018-07-15T02:17:33.506Z,12.77
2018-07-15T02:20:02.108Z,12.73
2018-07-15T02:22:30.593Z,12.40
2018-07-15T02:24:59.232Z,13.20
2018-07-15T02:27:27.774Z,13.87
2018-07-15T02:29:56.304Z,13.00
2018-07-15T02:32:24.854Z,12.10
2018-07-15T02:34:53.418Z,14.10
2018-07-15T02:37:21.904Z,13.43
2018-07-15T02:39:50.458Z,14.27
2018-07-15T02:42:18.910Z,13.60
2018-07-15T02:44:47.371Z,13.70
2018-07-15T02:47:15.893Z,12.83
2018-07-15T02:49:44.466Z,13.67
2018-07-15T02:52:13.033Z,13.80
2018-07-15T02:54:41.607Z,14.63
2018-07-15T02:57:10.180Z,12.43
2018-07-15T02:59:38.771Z,13.23
2018-07-15T03:02:07.420Z,13.90
2018-07-15T03:04:35.643Z,13.30
2018-07-15T03:07:05.273Z,15.50
2018-07-15T03:09:33.813Z,13.90
2018-07-15T03:12:02.435Z,14.10
2018-07-15T03:14:32.105Z,14.07
2018-07-15T03:17:00.706Z,14.50
2018-07-15T03:19:29.249Z,13.13
2018-07-15T03:21:57.789Z,15.83
2018-07-15T03:24:26.328Z,14.47
2018-07-15T03:26:54.869Z,13.67
2018-07-15T03:29:24.458Z,13.50
2018-07-15T03:31:52.986Z,14.40
2018-07-15T03:34:21.470Z,20.30
2018-07-15T03:36:50.103Z,15.30
2018-07-15T03:39:18.815Z,17.07
2018-07-15T03:41:47.400Z,15.47
2018-07-15T03:44:15.954Z,15.63
2018-07-15T03:46:44.507Z,16.13
2018-07-15T03:49:13.034Z,14.60
2018-07-15T03:51:41.546Z,14.87
2018-07-15T03:54:10.080Z,15.60
2018-07-15T03:56:38.662Z,19.20
2018-07-15T03:59:07.148Z,16.17
2018-07-15T04:01:35.701Z,15.90
2018-07-15T04:04:04.181Z,15.63
2018-07-15T04:06:32.701Z,14.00
2018-07-15T04:09:01.269Z,14.37
2018-07-15T04:11:29.741Z,14.23
2018-07-15T04:13:58.300Z,15.50
2018-07-15T04:16:26.835Z,13.97
2018-07-15T04:18:55.374Z,13.90
2018-07-15T04:21:23.885Z,18.07
2018-07-15T04:23:52.425Z,14.07
2018-07-15T04:26:21.025Z,14.90
2018-07-15T04:28:50.031Z,14.13
2018-07-15T04:31:18.579Z,14.40
2018-07-15T04:33:47.040Z,15.30
2018-07-15T04:36:15.589Z,15.17
2018-07-15T04:38:44.084Z,13.73
2018-07-15T04:41:12.591Z,14.40
2018-07-15T04:43:41.127Z,13.67
2018-07-15T04:46:09.697Z,13.90
2018-07-15T04:48:38.264Z,13.97
2018-07-15T04:51:06.774Z,13.33
2018-07-15T04:53:35.405Z,15.57
2018-07-15T04:56:03.927Z,14.00
2018-07-15T04:58:32.454Z,14.10
2018-07-15T05:01:01.014Z,14.40
2018-07-15T05:03:29.573Z,14.17
2018-07-15T05:05:58.137Z,12.93
2018-07-15T05:08:26.713Z,14.00
2018-07-15T05:10:55.242Z,14.27
2018-07-15T05:13:23.753Z,13.73
2018-07-15T05:15:52.249Z,12.70
2018-07-15T05:18:20.468Z,13.00
2018-07-15T05:20:48.941Z,13.20
2018-07-15T05:23:17.485Z,14.93
2018-07-15T05:25:46.022Z,14.33
2018-07-15T05:28:14.572Z,13.17
2018-07-15T05:30:43.052Z,13.60
2018-07-15T05:33:12.559Z,13.67
2018-07-15T05:35:41.121Z,13.53
2018-07-15T05:38:09.679Z,15.73
2018-07-15T05:40:38.106Z,14.10
2018-07-15T05:43:06.661Z,15.83
2018-07-15T05:45:35.274Z,13.40
2018-07-15T05:48:03.739Z,16.97
2018-07-15T05:50:32.276Z,16.70
2018-07-15T05:53:01.749Z,16.70
2018-07-15T05:55:30.326Z,17.30
2018-07-15T05:57:58.876Z,14.07
2018-07-15T06:00:27.408Z,13.47
2018-07-15T06:02:55.962Z,13.70
2018-07-15T06:05:24.546Z,15.70
2018-07-15T06:07:53.159Z,15.77
2018-07-15T06:10:25.253Z,14.93
2018-07-15T06:12:53.866Z,16.07
2018-07-15T06:15:22.415Z,15.60
2018-07-15T06:17:50.963Z,15.80
2018-07-15T06:20:19.457Z,14.87
2018-07-15T06:22:48.091Z,16.47
2018-07-15T06:25:16.596Z,24.73
2018-07-15T06:27:45.122Z,15.33
2018-07-15T06:30:13.625Z,15.30
2018-07-15T06:32:42.164Z,14.47
2018-07-15T06:35:10.696Z,14.17
2018-07-15T06:37:39.222Z,15.87
2018-07-15T06:40:08.084Z,13.77
2018-07-15T06:42:36.613Z,15.70
2018-07-15T06:45:05.273Z,15.27
2018-07-15T06:47:33.783Z,14.20
2018-07-15T06:50:02.411Z,13.67
2018-07-15T06:52:33.059Z,15.67
2018-07-15T06:55:01.254Z,16.80
2018-07-15T06:57:29.820Z,15.30
2018-07-15T06:59:58.371Z,15.30
2018-07-15T07:02:26.872Z,15.80
2018-07-15T07:04:55.418Z,15.20
2018-07-15T07:07:24.093Z,13.20
2018-07-15T07:09:52.586Z,14.10
2018-07-15T07:12:22.859Z,14.20
2018-07-15T07:14:51.419Z,12.97
2018-07-15T07:17:19.960Z,13.30
2018-07-15T07:19:48.525Z,12.97
2018-07-15T07:22:17.010Z,13.50
2018-07-15T07:24:45.533Z,13.60
2018-07-15T07:27:14.060Z,14.17
2018-07-15T07:29:42.619Z,13.30
2018-07-15T07:32:11.115Z,13.27
2018-07-15T07:34:39.696Z,13.43
2018-07-15T07:37:08.229Z,14.03
2018-07-15T07:39:36.800Z,15.00
2018-07-15T07:42:05.617Z,13.20
2018-07-15T07:44:34.178Z,13.00
2018-07-15T07:47:03.016Z,14.70
2018-07-15T07:49:31.458Z,13.47
2018-07-15T07:52:00.330Z,12.50
2018-07-15T07:54:28.894Z,14.13
2018-07-15T07:56:57.418Z,11.70
2018-07-15T07:59:26.089Z,11.63
2018-07-15T08:01:54.813Z,12.57
2018-07-15T08:04:23.012Z,12.37
2018-07-15T08:06:51.596Z,11.30
2018-07-15T08:09:19.863Z,10.80
2018-07-15T08:11:48.065Z,11.27
2018-07-15T08:14:16.640Z,11.80
2018-07-15T08:16:45.104Z,10.40
2018-07-15T08:19:13.705Z,9.90
2018-07-15T08:21:42.245Z,11.43
2018-07-15T08:24:10.785Z,11.00
2018-07-15T08:26:39.322Z,10.20
2018-07-15T08:29:07.998Z,10.63
2018-07-15T08:31:36.504Z,10.90
2018-07-15T08:34:04.820Z,11.00
2018-07-15T08:36:34.387Z,10.73
2018-07-15T08:39:03.120Z,9.50
2018-07-15T08:41:31.745Z,11.13
2018-07-15T08:44:00.263Z,9.90
2018-07-15T08:46:28.796Z,10.70
2018-07-15T08:48:57.361Z,10.70
2018-07-15T08:51:25.907Z,10.00
2018-07-15T08:53:54.520Z,9.70
2018-07-15T08:56:23.048Z,10.73
2018-07-15T08:58:52.205Z,10.80
2018-07-15T09:01:20.789Z,9.93
2018-07-15T09:03:49.363Z,11.10
2018-07-15T09:06:17.862Z,10.53
2018-07-15T09:08:46.362Z,9.80
2018-07-15T09:11:14.914Z,9.70
2018-07-15T09:13:43.467Z,10.00
2018-07-15T09:16:12.003Z,9.77
2018-07-15T09:18:40.547Z,9.20
2018-07-15T09:21:09.058Z,9.60
2018-07-15T09:23:37.536Z,9.07
2018-07-15T09:26:06.335Z,9.67
2018-07-15T09:28:34.877Z,8.53
2018-07-15T09:31:03.904Z,9.60
2018-07-15T09:33:32.510Z,8.77
2018-07-15T09:36:01.088Z,8.00
2018-07-15T09:38:29.610Z,8.97
2018-07-15T09:40:58.165Z,8.17
2018-07-15T09:43:26.690Z,7.73
2018-07-15T09:45:55.275Z,8.73
2018-07-15T09:48:23.765Z,8.10
2018-07-15T09:50:52.552Z,7.47
2018-07-15T09:53:21.108Z,8.87
2018-07-15T09:55:49.671Z,8.53
2018-07-15T09:58:18.251Z,7.90
2018-07-15T10:00:52.094Z,6.70
2018-07-15T10:03:20.582Z,7.10
2018-07-15T10:05:49.337Z,7.90
2018-07-15T10:08:17.849Z,7.67
2018-07-15T10:10:46.450Z,7.77
2018-07-15T10:13:15.089Z,8.23
2018-07-15T10:15:43.623Z,7.57
2018-07-15T10:18:12.158Z,7.43
2018-07-15T10:20:40.685Z,6.90
2018-07-15T10:23:09.220Z,7.87
2018-07-15T10:25:37.730Z,7.73
2018-07-15T10:28:06.366Z,7.77
2018-07-15T10:30:34.863Z,7.70
2018-07-15T10:33:03.382Z,8.93
2018-07-15T10:35:32.025Z,7.47
2018-07-15T10:38:00.536Z,7.50
2018-07-15T10:40:29.089Z,7.80
2018-07-15T10:42:57.650Z,7.80
2018-07-15T10:45:26.187Z,7.57
2018-07-15T10:47:54.698Z,7.50
2018-07-15T10:50:23.250Z,9.20
2018-07-15T10:52:51.842Z,7.30
2018-07-15T10:55:20.414Z,8.17
2018-07-15T10:57:48.939Z,7.37
2018-07-15T11:00:17.415Z,8.23
2018-07-15T11:02:45.890Z,7.40
2018-07-15T11:05:14.470Z,7.03
2018-07-15T11:07:42.977Z,6.00
2018-07-15T11:10:11.571Z,7.73
2018-07-15T11:12:40.183Z,7.00
2018-07-15T11:15:08.700Z,7.67
2018-07-15T11:17:37.243Z,7.20
2018-07-15T11:20:05.849Z,6.90
2018-07-15T11:22:34.490Z,7.17
2018-07-15T11:25:03.036Z,8.80
2018-07-15T11:27:31.520Z,9.07
2018-07-15T11:30:00.049Z,10.30
2018-07-15T11:32:28.616Z,11.17
2018-07-15T11:34:57.160Z,10.93
2018-07-15T11:37:25.661Z,11.70
2018-07-15T11:39:54.130Z,10.47
2018-07-15T11:42:22.744Z,10.10
2018-07-15T11:44:51.313Z,10.80
2018-07-15T11:47:19.886Z,11.20
2018-07-15T11:49:48.408Z,11.50
2018-07-15T11:52:17.019Z,12.50
2018-07-15T11:54:45.579Z,11.97
2018-07-15T11:57:14.112Z,11.60
2018-07-15T11:59:42.674Z,11.80
2018-07-15T12:02:11.513Z,11.83
2018-07-15T12:04:40.370Z,11.63
2018-07-15T12:07:09.031Z,11.10
2018-07-15T12:09:37.608Z,10.93
2018-07-15T12:12:06.212Z,10.80
2018-07-15T12:14:34.735Z,11.87
2018-07-15T12:17:03.191Z,11.23
2018-07-15T12:19:31.667Z,10.80
2018-07-15T12:22:00.213Z,11.87
2018-07-15T12:24:28.640Z,10.90
2018-07-15T12:26:57.164Z,13.50
2018-07-15T12:29:25.722Z,14.37
2018-07-15T12:31:54.275Z,11.40
2018-07-15T12:34:22.894Z,12.77
2018-07-15T12:36:51.507Z,11.93
2018-07-15T12:39:20.070Z,12.77
2018-07-15T12:41:48.633Z,10.57
2018-07-15T12:44:17.074Z,8.90
2018-07-15T12:46:45.637Z,10.03
2018-07-15T12:49:14.227Z,7.90
2018-07-15T12:51:42.885Z,6.40
2018-07-15T12:54:11.381Z,5.60
2018-07-15T12:56:40.006Z,8.93
2018-07-15T12:59:08.548Z,6.13
2018-07-15T13:01:37.145Z,5.80
2018-07-15T13:04:05.710Z,5.50
2018-07-15T13:06:34.261Z,7.50
2018-07-15T13:09:02.845Z,4.60
2018-07-15T13:11:31.374Z,5.10
2018-07-15T13:13:59.937Z,4.90
2018-07-15T13:16:28.560Z,6.10
2018-07-15T13:18:57.038Z,6.57
2018-07-15T13:21:25.585Z,5.40
2018-07-15T13:23:54.100Z,4.53
2018-07-15T13:26:22.604Z,5.60
2018-07-15T13:28:51.214Z,5.00
2018-07-15T13:31:19.809Z,4.90
2018-07-15T13:33:48.424Z,4.37
2018-07-15T13:36:17.000Z,5.03
2018-07-15T13:38:45.213Z,4.30
2018-07-15T13:41:14.011Z,4.60
2018-07-15T13:43:42.551Z,4.57
2018-07-15T13:46:11.073Z,6.00
2018-07-15T13:48:39.613Z,8.93
2018-07-15T13:51:08.207Z,4.77
2018-07-15T13:53:36.665Z,4.50
2018-07-15T13:56:05.266Z,4.37
2018-07-15T13:58:33.758Z,4.07
2018-07-15T14:01:02.265Z,4.60
2018-07-15T14:03:30.794Z,4.83
2018-07-15T14:05:59.357Z,4.27
2018-07-15T14:08:27.986Z,4.50
2018-07-15T14:10:56.541Z,4.70
2018-07-15T14:13:25.127Z,4.37
2018-07-15T14:15:53.730Z,3.63
2018-07-15T14:18:22.279Z,5.97
2018-07-15T14:20:50.428Z,5.10
2018-07-15T14:23:19.018Z,4.50
2018-07-15T14:25:47.624Z,4.90
2018-07-15T14:28:16.160Z,4.50
2018-07-15T14:30:44.692Z,4.87
2018-07-15T14:33:13.169Z,4.53
2018-07-15T14:35:41.690Z,4.53
2018-07-15T14:38:10.328Z,4.23
2018-07-15T14:40:38.845Z,4.83
2018-07-15T14:43:07.408Z,4.97
2018-07-15T14:45:41.014Z,4.37
2018-07-15T14:48:09.554Z,7.47
2018-07-15T14:50:38.068Z,4.80
2018-07-15T14:53:06.918Z,5.73
2018-07-15T14:55:35.813Z,4.80
2018-07-15T14:58:04.480Z,4.53
2018-07-15T15:00:33.021Z,5.40
2018-07-15T15:03:01.548Z,5.27
2018-07-15T15:05:30.083Z,5.20
2018-07-15T15:07:58.715Z,5.10
2018-07-15T15:10:27.219Z,5.33
2018-07-15T15:12:55.767Z,4.80
2018-07-15T15:15:24.243Z,4.93
2018-07-15T15:17:52.802Z,4.70
2018-07-15T15:20:21.307Z,6.40
2018-07-15T15:22:49.909Z,4.83
2018-07-15T15:25:18.510Z,4.63
2018-07-15T15:27:47.081Z,5.20
2018-07-15T15:30:15.599Z,5.47
2018-07-15T15:32:44.221Z,4.80
2018-07-15T15:35:12.793Z,6.70
2018-07-15T15:37:41.382Z,4.43
2018-07-15T15:40:10.880Z,4.57
2018-07-15T15:42:39.454Z,4.50
2018-07-15T15:45:08.089Z,4.90
2018-07-15T15:47:36.549Z,3.90
2018-07-15T15:50:05.330Z,3.77
2018-07-15T15:52:33.792Z,4.93
2018-07-15T15:55:02.272Z,5.20
2018-07-15T15:57:30.791Z,4.90
2018-07-15T15:59:59.430Z,4.53
2018-07-15T16:02:28.209Z,3.90
2018-07-15T16:04:56.829Z,5.03
2018-07-15T16:07:25.381Z,4.43
2018-07-15T16:09:53.949Z,5.40
2018-07-15T16:12:22.529Z,4.90
2018-07-15T16:14:50.979Z,4.77
2018-07-15T16:17:19.454Z,3.97
2018-07-15T16:19:47.960Z,4.43
2018-07-15T16:22:16.623Z,4.17
2018-07-15T16:24:45.185Z,5.00
2018-07-15T16:27:13.741Z,4.30
2018-07-15T16:29:42.304Z,5.70
2018-07-15T16:32:10.856Z,10.20
2018-07-15T16:34:39.360Z,5.13
2018-07-15T16:37:07.822Z,4.73
2018-07-15T16:39:36.310Z,7.10
2018-07-15T16:42:04.872Z,6.77
2018-07-15T16:44:33.421Z,5.13
2018-07-15T16:47:01.948Z,4.57
2018-07-15T16:49:30.488Z,4.63
2018-07-15T16:51:59.005Z,4.53
2018-07-15T16:54:27.501Z,4.93
2018-07-15T16:56:56.069Z,5.60
2018-07-15T16:59:24.673Z,4.70
2018-07-15T17:01:53.156Z,5.63
2018-07-15T17:04:21.737Z,6.73
2018-07-15T17:06:50.418Z,4.97
2018-07-15T17:09:18.931Z,5.00
2018-07-15T17:11:47.445Z,5.37
2018-07-15T17:14:15.987Z,4.97
2018-07-15T17:16:44.550Z,4.73
2018-07-15T17:19:13.058Z,4.90
2018-07-15T17:21:41.591Z,5.07
2018-07-15T17:24:10.139Z,5.50
2018-07-15T17:26:38.728Z,4.40
2018-07-15T17:29:07.205Z,5.10
2018-07-15T17:31:35.745Z,3.80
2018-07-15T17:34:04.256Z,4.53
2018-07-15T17:36:32.820Z,5.00
2018-07-15T17:39:01.362Z,4.13
2018-07-15T17:41:30.050Z,4.70
2018-07-15T17:43:58.675Z,4.90
2018-07-15T17:46:27.195Z,7.90
2018-07-15T17:48:55.760Z,4.27
2018-07-15T17:51:24.281Z,5.30
2018-07-15T17:53:52.816Z,4.57
2018-07-15T17:56:21.355Z,5.10
2018-07-15T17:58:49.884Z,4.67
2018-07-15T18:01:18.386Z,5.00
2018-07-15T18:03:46.949Z,4.90
2018-07-15T18:06:15.537Z,4.80
2018-07-15T18:08:44.057Z,4.93
2018-07-15T18:11:12.731Z,5.13
2018-07-15T18:13:41.215Z,4.87
2018-07-15T18:16:09.794Z,8.03
2018-07-15T18:18:38.337Z,7.33
2018-07-15T18:21:06.909Z,4.97
2018-07-15T18:23:35.460Z,4.90
2018-07-15T18:26:04.057Z,4.97
2018-07-15T18:28:32.548Z,9.03
2018-07-15T18:31:01.149Z,10.20
2018-07-15T18:33:29.832Z,7.43
2018-07-15T18:35:58.392Z,6.30
2018-07-15T18:38:26.905Z,4.63
2018-07-15T18:40:55.401Z,5.30
2018-07-15T18:43:24.014Z,5.37
2018-07-15T18:45:52.573Z,7.13
2018-07-15T18:48:21.065Z,6.07
2018-07-15T18:50:49.546Z,8.80
2018-07-15T18:53:18.113Z,8.57
2018-07-15T18:55:46.896Z,7.67
2018-07-15T18:58:15.362Z,8.87
2018-07-15T19:00:43.979Z,7.67
2018-07-15T19:03:12.439Z,10.07
2018-07-15T19:05:40.948Z,6.80
2018-07-15T19:08:09.429Z,6.50
2018-07-15T19:10:38.037Z,4.60
2018-07-15T19:13:06.600Z,5.00
2018-07-15T19:15:35.169Z,4.87
2018-07-15T19:18:03.733Z,4.83
2018-07-15T19:20:32.279Z,4.50
2018-07-15T19:23:00.827Z,5.00
2018-07-15T19:25:29.369Z,5.07
2018-07-15T19:27:57.933Z,4.43
2018-07-15T19:30:26.471Z,5.10
2018-07-15T19:32:54.993Z,3.43
2018-07-15T19:35:23.622Z,3.70
2018-07-15T19:37:52.174Z,3.70
2018-07-15T19:40:20.638Z,5.83
2018-07-15T19:42:49.207Z,5.10
2018-07-15T19:45:17.818Z,4.30
2018-07-15T19:47:47.390Z,3.87
2018-07-15T19:50:15.945Z,3.43
2018-07-15T19:52:44.525Z,3.90
2018-07-15T19:55:13.195Z,4.30
2018-07-15T19:57:41.763Z,2.90
2018-07-15T20:00:10.294Z,3.30
2018-07-15T20:02:39.142Z,3.20
2018-07-15T20:05:07.597Z,3.80
2018-07-15T20:07:36.102Z,3.40
2018-07-15T20:10:04.685Z,3.53
2018-07-15T20:12:33.203Z,3.80
2018-07-15T20:15:01.750Z,4.03
2018-07-15T20:17:30.296Z,3.63
2018-07-15T20:19:58.854Z,4.50
2018-07-15T20:22:27.461Z,4.60
2018-07-15T20:24:56.078Z,4.13
2018-07-15T20:27:24.564Z,4.77
2018-07-15T20:29:53.089Z,3.67
2018-07-15T20:32:21.715Z,4.33
2018-07-15T20:34:50.240Z,3.63
2018-07-15T20:37:18.814Z,3.53
2018-07-15T20:39:47.351Z,6.80
2018-07-15T20:42:15.889Z,5.17
2018-07-15T20:44:44.437Z,4.03
2018-07-15T20:47:13.008Z,3.77
2018-07-15T20:49:41.500Z,4.13
2018-07-15T20:52:10.157Z,6.00
2018-07-15T20:54:39.785Z,3.93
2018-07-15T20:57:08.320Z,4.43
2018-07-15T20:59:36.882Z,4.60
2018-07-15T21:02:05.453Z,4.03
2018-07-15T21:04:33.978Z,3.70
2018-07-15T21:07:02.505Z,3.40
2018-07-15T21:09:31.021Z,3.90
2018-07-15T21:11:59.582Z,4.23
2018-07-15T21:14:28.077Z,3.80
2018-07-15T21:16:56.670Z,4.10
2018-07-15T21:19:25.132Z,6.43
2018-07-15T21:21:53.670Z,4.97
2018-07-15T21:24:22.208Z,3.73
2018-07-15T21:26:50.792Z,4.70
2018-07-15T21:29:19.270Z,5.13
2018-07-15T21:31:47.747Z,4.17
2018-07-15T21:34:16.325Z,4.10
2018-07-15T21:36:44.978Z,4.83
2018-07-15T21:39:13.536Z,4.57
2018-07-15T21:41:42.057Z,4.17
2018-07-15T21:44:10.741Z,6.10
2018-07-15T21:46:39.262Z,4.13
2018-07-15T21:49:07.795Z,4.60
2018-07-15T21:51:36.012Z,5.30
2018-07-15T21:54:04.578Z,4.30
2018-07-15T21:56:33.158Z,5.90
2018-07-15T21:59:01.798Z,5.30
2018-07-15T22:01:39.018Z,6.30
2018-07-15T22:04:08.357Z,4.30
2018-07-15T22:06:47.986Z,5.33
2018-07-15T22:09:28.246Z,4.43
2018-07-15T22:11:57.777Z,4.73
2018-07-15T22:14:26.312Z,7.10
2018-07-15T22:16:54.860Z,4.00
2018-07-15T22:19:23.514Z,5.17
2018-07-15T22:21:51.993Z,4.43
2018-07-15T22:24:20.610Z,3.80
2018-07-15T22:26:49.192Z,3.60
2018-07-15T22:29:17.729Z,5.00
2018-07-15T22:31:46.306Z,5.53
2018-07-15T22:34:14.850Z,8.23
2018-07-15T22:36:43.382Z,4.90
2018-07-15T22:39:11.901Z,4.60
2018-07-15T22:41:40.429Z,4.73
2018-07-15T22:44:09.093Z,4.43
2018-07-15T22:46:37.641Z,4.70
2018-07-15T22:49:06.165Z,6.13
2018-07-15T22:51:34.653Z,4.60
2018-07-15T22:54:03.270Z,5.60
2018-07-15T22:56:31.831Z,4.73
2018-07-15T22:59:00.438Z,4.60
2018-07-15T23:01:28.967Z,4.00
2018-07-15T23:03:57.574Z,4.50
2018-07-15T23:06:26.121Z,5.40
2018-07-15T23:08:54.611Z,4.57
2018-07-15T23:11:23.183Z,4.00
2018-07-15T23:13:51.732Z,4.67
2018-07-15T23:16:20.223Z,6.10
2018-07-15T23:18:48.773Z,4.60
2018-07-15T23:21:17.249Z,4.00
2018-07-15T23:23:45.790Z,5.70
2018-07-15T23:26:14.321Z,4.10
2018-07-15T23:28:42.862Z,4.80
2018-07-15T23:31:12.069Z,5.77
2018-07-15T23:33:40.569Z,5.03
2018-07-15T23:36:09.145Z,4.47
2018-07-15T23:38:37.653Z,6.30
2018-07-15T23:41:06.470Z,5.70
2018-07-15T23:43:35.080Z,6.87
2018-07-15T23:46:03.536Z,4.90
2018-07-15T23:48:32.156Z,4.50
2018-07-15T23:51:00.637Z,4.70
2018-07-15T23:53:29.194Z,6.80
2018-07-15T23:55:57.783Z,8.60
2018-07-15T23:58:26.358Z,5.53
